Portada
METAR-TAF:

METAR-TAF

Aeropuertos :

Aeropuerto Internacional de Maiquetía Simón Bolívar

Caracas, Venezuela

latitud: 10-36N, longitud: 066-59W, altitud: 43 m

Observación

El informe se hizo hace 26 minutos, a las 05:00 UTC
Viento calma
Temperatura 25°C
Humedad 89%
Presión 1012 hPa
Visibilidad 10 km o más
Nubes dispersas a una altura de 1600 ft

METAR: SVMI 260500Z 00000KT 9999 SCT016 25/23 Q1012

Hora: 01:26 (05:26 UTC)

Pronóstico

El informe se hizo hace 7 horas y 26 minutos, a las 22:00 UTC
Pronóstico válido del 26 a las 00 UTC al 27 a las 00 UTC
Viento 10 kt del este
Visibilidad 10 km o más
Nubes dispersas a una altura de 1600 ft
Evolucionando progresivamente
del 26 a las 00 UTC al 26 a las 04 UTC
Viento 10 kt del este
Visibilidad 10 km o más
Nubes dispersas a una altura de 1600 ft
Cielo nuboso a una altura de 1600 ft

TAF: SVMI 252200Z 2600/2700 09010KT 9999 SCT016 TX32/17Z TN22/09Z BECMG 2600/2604 09010KT 9999 SCT016 BKN016

Observaciones y pronósticos meteorológicos de más de 4000 aeropuertos (mensajes METAR y TAF).

Los puntos amarillos y rojos representan las estaciones disponibles.

Ponga el ratón en el punto deseado para ver el nombre de la estación.

Haga clic para ver las observaciones y los pronósticos meteorológicos.

Para cambiar el mapa : haga clic en los botones verdes con una cruz de color negro para hacer un zoom, en el botón verde con un guión para alejar o en las flechas verdes para mapas adyacentes.


METAR-TAF: